createdAt,value
2023-01-17T00:00:47.347Z,19.9
2023-01-17T00:02:31.065Z,19.9
2023-01-17T00:04:14.724Z,19.9
2023-01-17T00:05:58.442Z,19.9
2023-01-17T00:07:42.138Z,19.9
2023-01-17T00:09:25.882Z,19.9
2023-01-17T00:11:09.636Z,19.9
2023-01-17T00:12:53.244Z,19.9
2023-01-17T00:14:36.987Z,19.9
2023-01-17T00:16:20.612Z,19.8
2023-01-17T00:18:04.433Z,19.8
2023-01-17T00:19:47.966Z,19.8
2023-01-17T00:21:31.685Z,19.8
2023-01-17T00:23:15.404Z,19.8
2023-01-17T00:24:59.144Z,19.8
2023-01-17T00:26:42.784Z,19.8
2023-01-17T00:28:26.563Z,19.8
2023-01-17T00:30:10.194Z,19.8
2023-01-17T00:31:53.918Z,19.8
2023-01-17T00:33:37.621Z,19.8
2023-01-17T00:35:21.296Z,19.8
2023-01-17T00:37:04.994Z,19.8
2023-01-17T00:38:48.772Z,19.8
2023-01-17T00:40:32.393Z,19.8
2023-01-17T00:42:16.095Z,19.8
2023-01-17T00:43:59.807Z,19.8
2023-01-17T00:45:43.497Z,19.8
2023-01-17T00:47:27.202Z,19.8
2023-01-17T00:49:10.896Z,19.8
2023-01-17T00:50:54.653Z,19.8
2023-01-17T00:52:38.379Z,19.8
2023-01-17T00:54:22.010Z,19.8
2023-01-17T00:56:05.760Z,19.8
2023-01-17T00:57:49.442Z,19.7
2023-01-17T00:59:33.103Z,19.7
2023-01-17T01:01:16.800Z,19.7
2023-01-17T01:03:00.539Z,19.8
2023-01-17T01:04:44.275Z,19.7
2023-01-17T01:06:27.946Z,19.7
2023-01-17T01:08:11.624Z,19.7
2023-01-17T01:09:55.320Z,19.7
2023-01-17T01:11:39.049Z,19.7
2023-01-17T01:13:22.743Z,19.7
2023-01-17T01:15:06.429Z,19.7
2023-01-17T01:16:50.146Z,19.7
2023-01-17T01:18:33.841Z,19.7
2023-01-17T01:20:17.579Z,19.7
2023-01-17T01:22:01.247Z,19.7
2023-01-17T01:23:44.947Z,19.7
2023-01-17T01:25:28.692Z,19.7
2023-01-17T01:27:12.365Z,19.7
2023-01-17T01:28:56.062Z,19.7
2023-01-17T01:30:39.767Z,19.7
2023-01-17T01:32:23.457Z,19.7
2023-01-17T01:34:07.172Z,19.7
2023-01-17T01:35:50.892Z,19.7
2023-01-17T01:37:34.582Z,19.7
2023-01-17T01:39:18.268Z,19.7
2023-01-17T01:41:02.081Z,19.7
2023-01-17T01:42:45.674Z,19.7
2023-01-17T01:44:29.389Z,19.7
2023-01-17T01:46:13.072Z,19.7
2023-01-17T01:47:56.788Z,19.7
2023-01-17T01:49:40.480Z,19.7
2023-01-17T01:51:24.190Z,19.8
2023-01-17T01:53:07.883Z,19.8
2023-01-17T01:54:51.623Z,19.8
2023-01-17T01:56:35.282Z,19.8
2023-01-17T01:58:18.988Z,19.8
2023-01-17T02:00:02.681Z,19.8
2023-01-17T02:01:46.393Z,19.8
2023-01-17T02:03:30.095Z,19.8
2023-01-17T02:05:13.794Z,19.8
2023-01-17T02:06:57.494Z,19.8
2023-01-17T02:08:41.221Z,19.7
2023-01-17T02:10:24.890Z,19.8
2023-01-17T02:12:08.596Z,19.8
2023-01-17T02:13:52.302Z,19.8
2023-01-17T02:15:36.009Z,19.8
2023-01-17T02:17:19.694Z,19.8
2023-01-17T02:19:03.399Z,19.8
2023-01-17T02:20:47.101Z,19.8
2023-01-17T02:22:30.813Z,19.8
2023-01-17T02:24:14.503Z,19.8
2023-01-17T02:25:58.197Z,19.8
2023-01-17T02:27:41.955Z,19.8
2023-01-17T02:29:25.606Z,19.8
2023-01-17T02:31:09.298Z,19.8
2023-01-17T02:32:53.018Z,19.8
2023-01-17T02:34:36.707Z,19.7
2023-01-17T02:36:20.414Z,19.8
2023-01-17T02:38:04.123Z,19.8
2023-01-17T02:39:47.810Z,19.8
2023-01-17T02:41:31.512Z,19.8
2023-01-17T02:43:15.211Z,19.7
2023-01-17T02:44:58.912Z,19.8
2023-01-17T02:46:42.621Z,19.7
2023-01-17T02:48:26.346Z,19.8
2023-01-17T02:50:10.030Z,19.8
2023-01-17T02:51:53.721Z,19.8
2023-01-17T02:53:37.443Z,19.7
2023-01-17T02:55:21.126Z,19.7
2023-01-17T02:57:04.839Z,19.7
2023-01-17T02:58:48.536Z,19.7
2023-01-17T03:00:32.242Z,19.8
2023-01-17T03:02:15.949Z,19.7
2023-01-17T03:03:59.636Z,19.7
2023-01-17T03:05:43.374Z,19.7
2023-01-17T03:07:27.078Z,19.7
2023-01-17T03:09:10.749Z,19.7
2023-01-17T03:10:54.468Z,19.7
2023-01-17T03:12:38.187Z,19.7
2023-01-17T03:14:21.878Z,19.7
2023-01-17T03:16:05.578Z,19.7
2023-01-17T03:17:49.273Z,19.8
2023-01-17T03:19:32.976Z,19.8
2023-01-17T03:21:16.688Z,19.8
2023-01-17T03:23:00.397Z,19.8
2023-01-17T03:24:44.062Z,19.8
2023-01-17T03:26:27.787Z,19.7
2023-01-17T03:28:11.472Z,19.7
2023-01-17T03:29:55.170Z,19.7
2023-01-17T03:31:38.864Z,19.7
2023-01-17T03:33:22.581Z,19.8
2023-01-17T03:35:06.293Z,19.8
2023-01-17T03:36:49.990Z,19.8
2023-01-17T03:38:33.679Z,19.8
2023-01-17T03:40:17.390Z,19.8
2023-01-17T03:42:01.079Z,19.8
2023-01-17T03:43:44.788Z,19.8
2023-01-17T03:45:28.479Z,19.8
2023-01-17T03:47:12.190Z,19.8
2023-01-17T03:48:55.889Z,19.8
2023-01-17T03:50:39.615Z,19.8
2023-01-17T03:52:23.414Z,19.8
2023-01-17T03:54:07.006Z,19.8
2023-01-17T03:55:50.717Z,19.8
2023-01-17T03:59:18.116Z,19.8
2023-01-17T04:01:01.833Z,19.8
2023-01-17T04:02:45.532Z,19.8
2023-01-17T04:04:29.338Z,19.8
2023-01-17T04:06:12.932Z,19.8
2023-01-17T04:07:56.631Z,19.8
2023-01-17T04:09:40.325Z,19.8
2023-01-17T04:11:24.037Z,19.8
2023-01-17T04:13:07.734Z,19.8
2023-01-17T04:14:51.438Z,19.8
2023-01-17T04:16:35.140Z,19.8
2023-01-17T04:18:18.854Z,19.8
2023-01-17T04:20:02.559Z,19.8
2023-01-17T04:21:46.240Z,19.8
2023-01-17T04:23:29.959Z,19.8
2023-01-17T04:25:13.659Z,19.8
2023-01-17T04:26:57.367Z,19.8
2023-01-17T04:28:41.061Z,19.8
2023-01-17T04:30:24.743Z,19.8
2023-01-17T04:32:08.471Z,19.8
2023-01-17T04:33:52.180Z,19.8
2023-01-17T04:35:35.867Z,19.8
2023-01-17T04:37:19.619Z,19.8
2023-01-17T04:39:03.300Z,19.8
2023-01-17T04:40:46.985Z,19.8
2023-01-17T04:42:30.676Z,19.8
2023-01-17T04:44:14.383Z,19.8
2023-01-17T04:45:58.120Z,19.8
2023-01-17T04:47:41.788Z,19.8
2023-01-17T04:49:25.486Z,19.8
2023-01-17T04:51:09.195Z,19.8
2023-01-17T04:52:52.874Z,19.8
2023-01-17T04:54:36.591Z,19.8
2023-01-17T04:56:20.304Z,19.8
2023-01-17T04:58:03.991Z,19.8
2023-01-17T04:59:47.690Z,19.8
2023-01-17T05:01:31.417Z,19.8
2023-01-17T05:03:15.111Z,19.8
2023-01-17T05:04:58.815Z,19.8
2023-01-17T05:06:42.500Z,19.8
2023-01-17T05:08:26.215Z,19.8
2023-01-17T05:10:09.902Z,19.8
2023-01-17T05:11:53.613Z,19.8
2023-01-17T05:13:37.309Z,19.8
2023-01-17T05:15:21.023Z,19.8
2023-01-17T05:17:04.707Z,19.8
2023-01-17T05:18:48.435Z,19.8
2023-01-17T05:20:32.137Z,19.7
2023-01-17T05:22:15.913Z,19.8
2023-01-17T05:23:59.522Z,19.8
2023-01-17T05:25:43.228Z,19.7
2023-01-17T05:27:26.992Z,19.7
2023-01-17T05:29:10.650Z,19.8
2023-01-17T05:30:54.336Z,19.7
2023-01-17T05:32:38.036Z,19.7
2023-01-17T05:34:21.752Z,19.7
2023-01-17T05:36:05.444Z,19.7
2023-01-17T05:37:49.136Z,19.7
2023-01-17T05:39:32.833Z,19.7
2023-01-17T05:41:16.540Z,19.7
2023-01-17T05:43:00.243Z,19.7
2023-01-17T05:44:43.940Z,19.7
2023-01-17T05:46:27.655Z,19.7
2023-01-17T05:48:11.375Z,19.7
2023-01-17T05:49:55.059Z,19.7
2023-01-17T05:51:38.749Z,19.7
2023-01-17T05:53:22.462Z,19.7
2023-01-17T05:55:06.159Z,19.7
2023-01-17T05:56:49.856Z,19.7
2023-01-17T05:58:33.557Z,19.7
2023-01-17T06:00:17.264Z,19.7
2023-01-17T06:02:00.991Z,19.7
2023-01-17T06:03:44.681Z,19.7
2023-01-17T06:05:28.372Z,19.7
2023-01-17T06:07:12.077Z,19.7
2023-01-17T06:08:55.771Z,19.7
2023-01-17T06:10:39.552Z,19.7
2023-01-17T06:12:23.188Z,19.7
2023-01-17T06:14:06.898Z,19.7
2023-01-17T06:15:50.599Z,19.7
2023-01-17T06:17:34.306Z,19.7
2023-01-17T06:19:17.997Z,19.7
2023-01-17T06:21:01.708Z,19.7
2023-01-17T06:22:45.422Z,19.7
2023-01-17T06:24:29.106Z,19.7
2023-01-17T06:26:12.813Z,19.7
2023-01-17T06:27:56.509Z,19.7
2023-01-17T06:29:40.217Z,19.7
2023-01-17T06:31:23.917Z,19.6
2023-01-17T06:33:07.684Z,19.6
2023-01-17T06:34:51.331Z,19.6
2023-01-17T06:36:35.021Z,19.6
2023-01-17T06:38:18.736Z,19.6
2023-01-17T06:40:02.491Z,19.6
2023-01-17T06:41:46.138Z,19.6
2023-01-17T06:43:29.854Z,19.6
2023-01-17T06:45:13.555Z,19.6
2023-01-17T06:46:57.248Z,19.6
2023-01-17T06:48:40.953Z,19.6
2023-01-17T06:50:24.659Z,19.6
2023-01-17T06:52:08.410Z,19.6
2023-01-17T06:53:52.053Z,19.6
2023-01-17T06:55:35.840Z,19.6
2023-01-17T06:57:19.475Z,19.6
2023-01-17T06:59:03.181Z,19.6
2023-01-17T07:00:46.980Z,19.6
2023-01-17T07:02:30.571Z,19.5
2023-01-17T07:04:14.324Z,19.6
2023-01-17T07:05:57.991Z,19.6
2023-01-17T07:07:41.686Z,19.6
2023-01-17T07:09:25.399Z,19.6
2023-01-17T07:11:09.137Z,19.6
2023-01-17T07:12:52.789Z,19.6
2023-01-17T07:14:36.532Z,19.6
2023-01-17T07:16:20.272Z,19.6
2023-01-17T07:18:03.965Z,19.6
2023-01-17T07:19:47.589Z,19.6
2023-01-17T07:21:31.338Z,19.6
2023-01-17T07:23:15.084Z,19.6
2023-01-17T07:24:58.720Z,19.6
2023-01-17T07:26:42.427Z,19.6
2023-01-17T07:28:26.135Z,19.6
2023-01-17T07:30:09.806Z,19.6
2023-01-17T07:31:53.514Z,19.6
2023-01-17T07:33:37.274Z,19.6
2023-01-17T07:35:20.926Z,19.6
2023-01-17T07:37:04.608Z,19.6
2023-01-17T07:38:48.418Z,19.5
2023-01-17T07:40:32.035Z,19.6
2023-01-17T07:42:15.714Z,19.5
2023-01-17T07:43:59.432Z,19.5
2023-01-17T07:45:43.182Z,19.5
2023-01-17T07:47:26.821Z,19.5
2023-01-17T07:49:10.681Z,19.6
2023-01-17T07:52:37.993Z,19.5
2023-01-17T07:54:21.679Z,19.5
2023-01-17T07:56:05.315Z,19.5
2023-01-17T07:57:49.030Z,19.5
2023-01-17T07:59:32.732Z,19.5
2023-01-17T08:01:16.413Z,19.5
2023-01-17T08:03:00.141Z,19.5
2023-01-17T08:04:43.920Z,19.5
2023-01-17T08:06:27.583Z,19.5
2023-01-17T08:08:11.231Z,19.5
2023-01-17T08:09:54.983Z,19.6
2023-01-17T08:11:38.729Z,19.6
2023-01-17T08:13:22.337Z,19.6
2023-01-17T08:15:06.066Z,19.6
2023-01-17T08:16:49.820Z,19.6
2023-01-17T08:18:33.468Z,19.6
2023-01-17T08:20:17.151Z,19.6
2023-01-17T08:22:00.877Z,19.7
2023-01-17T08:23:44.598Z,19.7
2023-01-17T08:25:28.310Z,19.7
2023-01-17T08:27:12.019Z,19.6
2023-01-17T08:28:55.665Z,19.6
2023-01-17T08:30:39.361Z,19.7
2023-01-17T08:32:23.174Z,19.7
2023-01-17T08:34:06.822Z,19.7
2023-01-17T08:35:50.483Z,19.7
2023-01-17T08:37:34.198Z,19.8
2023-01-17T08:39:17.921Z,19.8
2023-01-17T08:41:01.585Z,19.8
2023-01-17T08:42:45.313Z,19.8
2023-01-17T08:44:28.969Z,19.9
2023-01-17T08:46:12.774Z,19.9
2023-01-17T08:47:56.374Z,19.9
2023-01-17T08:49:40.078Z,19.9
2023-01-17T08:51:23.964Z,20
2023-01-17T08:53:07.542Z,20
2023-01-17T08:54:51.288Z,20
2023-01-17T08:56:34.968Z,20.1
2023-01-17T09:00:02.353Z,20.2
2023-01-17T09:01:46.003Z,20.2
2023-01-17T09:03:29.727Z,20.2
2023-01-17T09:05:13.416Z,20.3
2023-01-17T09:06:57.153Z,20.3
2023-01-17T09:08:40.812Z,20.3
2023-01-17T09:10:24.523Z,20.3
2023-01-17T09:12:08.216Z,20.4
2023-01-17T09:13:51.919Z,20.4
2023-01-17T09:15:35.635Z,20.5
2023-01-17T09:17:19.325Z,20.5
2023-01-17T09:19:03.026Z,20.5
2023-01-17T09:20:46.711Z,20.5
2023-01-17T09:22:30.429Z,20.5
2023-01-17T09:24:14.128Z,20.6
2023-01-17T09:25:57.839Z,20.6
2023-01-17T09:27:41.545Z,20.6
2023-01-17T09:29:25.240Z,20.6
2023-01-17T09:31:08.938Z,20.7
2023-01-17T09:32:52.677Z,20.7
2023-01-17T09:34:36.340Z,20.7
2023-01-17T09:36:20.086Z,20.7
2023-01-17T09:38:03.809Z,20.7
2023-01-17T09:39:47.477Z,20.6
2023-01-17T09:41:31.243Z,20.6
2023-01-17T09:43:14.922Z,20.6
2023-01-17T09:44:58.666Z,20.6
2023-01-17T09:46:42.304Z,20.6
2023-01-17T09:48:26.031Z,20.6
2023-01-17T09:50:09.688Z,20.5
2023-01-17T09:51:53.436Z,20.5
2023-01-17T09:53:37.070Z,20.5
2023-01-17T09:55:20.806Z,20.5
2023-01-17T09:57:04.640Z,20.5
2023-01-17T09:58:48.173Z,20.5
2023-01-17T10:00:31.908Z,20.5
2023-01-17T10:02:15.577Z,20.5
2023-01-17T10:03:59.282Z,20.5
2023-01-17T10:05:42.969Z,20.5
2023-01-17T10:07:26.658Z,20.5
2023-01-17T10:09:10.590Z,20.5
2023-01-17T10:10:54.168Z,20.6
2023-01-17T10:12:37.878Z,20.6
2023-01-17T10:14:21.548Z,20.6
2023-01-17T10:16:05.327Z,20.6
2023-01-17T10:17:48.991Z,20.6
2023-01-17T10:19:32.751Z,20.6
2023-01-17T10:21:16.295Z,20.6
2023-01-17T10:24:43.776Z,20.5
2023-01-17T10:26:27.559Z,20.5
2023-01-17T10:28:11.258Z,20.6
2023-01-17T10:29:54.933Z,20.6
2023-01-17T10:31:38.649Z,20.6
2023-01-17T10:33:22.393Z,20.6
2023-01-17T10:35:06.039Z,20.6
2023-01-17T10:36:49.760Z,20.6
2023-01-17T10:38:33.428Z,20.7
2023-01-17T10:40:17.088Z,20.7
2023-01-17T10:42:00.879Z,20.7
2023-01-17T10:43:44.549Z,20.8
2023-01-17T10:45:28.246Z,20.7
2023-01-17T10:47:11.843Z,20.8
2023-01-17T10:48:55.665Z,20.9
2023-01-17T10:50:39.227Z,20.9
2023-01-17T10:52:22.923Z,21
2023-01-17T10:54:06.719Z,21
2023-01-17T10:55:50.384Z,20.9
2023-01-17T10:57:34.050Z,20.9
2023-01-17T10:59:17.775Z,20.9
2023-01-17T11:01:01.514Z,20.9
2023-01-17T11:02:45.115Z,20.9
2023-01-17T11:04:28.829Z,20.9
2023-01-17T11:06:12.734Z,20.9
2023-01-17T11:07:56.242Z,20.8
2023-01-17T11:09:40.115Z,20.9
2023-01-17T11:11:23.623Z,20.9
2023-01-17T11:13:07.461Z,20.8
2023-01-17T11:14:51.040Z,20.9
2023-01-17T11:16:34.731Z,20.8
2023-01-17T11:18:18.536Z,20.8
2023-01-17T11:20:02.137Z,20.8
2023-01-17T11:21:45.875Z,20.8
2023-01-17T11:23:29.542Z,20.8
2023-01-17T11:25:13.355Z,20.8
2023-01-17T11:26:56.928Z,20.8
2023-01-17T11:28:40.797Z,20.8
2023-01-17T11:30:24.347Z,20.8
2023-01-17T11:32:08.038Z,20.8
2023-01-17T11:33:51.829Z,20.8
2023-01-17T11:35:35.431Z,20.8
2023-01-17T11:37:19.160Z,20.8
2023-01-17T11:39:02.850Z,20.8
2023-01-17T11:40:46.675Z,20.8
2023-01-17T11:42:30.251Z,20.8
2023-01-17T11:44:14.043Z,20.8
2023-01-17T11:45:57.653Z,20.8
2023-01-17T11:47:41.371Z,20.8
2023-01-17T11:49:25.156Z,20.8
2023-01-17T11:51:08.804Z,20.8
2023-01-17T11:52:52.483Z,20.8
2023-01-17T11:54:36.297Z,20.8
2023-01-17T11:56:19.921Z,20.8
2023-01-17T11:58:03.669Z,20.8
2023-01-17T11:59:47.296Z,20.8
2023-01-17T12:01:31.050Z,20.8
2023-01-17T12:03:14.833Z,20.8
2023-01-17T12:04:58.377Z,20.8
2023-01-17T12:06:42.095Z,20.7
2023-01-17T12:08:25.864Z,20.7
2023-01-17T12:10:09.660Z,20.7
2023-01-17T12:11:53.201Z,20.7
2023-01-17T12:13:36.895Z,20.6
2023-01-17T12:15:20.579Z,20.6
2023-01-17T12:17:04.324Z,20.6
2023-01-17T12:18:48.000Z,20.6
2023-01-17T12:20:31.703Z,20.6
2023-01-17T12:22:15.589Z,20.6
2023-01-17T12:23:59.285Z,20.6
2023-01-17T12:25:42.914Z,20.6
2023-01-17T12:27:26.805Z,20.6
2023-01-17T12:29:10.380Z,20.6
2023-01-17T12:30:54.775Z,20.6
2023-01-17T12:32:37.600Z,20.6
2023-01-17T12:34:21.490Z,20.7
2023-01-17T12:36:05.175Z,20.7
2023-01-17T12:37:48.873Z,20.7
2023-01-17T12:39:32.606Z,20.7
2023-01-17T12:41:16.298Z,20.7
2023-01-17T12:43:00.030Z,20.7
2023-01-17T12:44:43.632Z,20.7
2023-01-17T12:46:27.237Z,20.7
2023-01-17T12:48:10.916Z,20.7
2023-01-17T12:49:54.811Z,20.7
2023-01-17T12:51:38.359Z,20.7
2023-01-17T12:53:22.150Z,20.6
2023-01-17T12:55:05.724Z,20.6
2023-01-17T12:56:49.499Z,20.6
2023-01-17T13:00:16.928Z,20.7
2023-01-17T13:02:00.621Z,20.7
2023-01-17T13:03:44.269Z,20.7
2023-01-17T13:05:28.096Z,20.8
2023-01-17T13:07:11.813Z,20.8
2023-01-17T13:08:55.455Z,20.9
2023-01-17T13:10:39.270Z,20.9
2023-01-17T13:12:22.782Z,21
2023-01-17T13:14:06.731Z,21
2023-01-17T13:15:50.268Z,21
2023-01-17T13:17:33.860Z,21
2023-01-17T13:19:17.669Z,21
2023-01-17T13:21:01.282Z,21.1
2023-01-17T13:22:45.079Z,21.1
2023-01-17T13:24:28.731Z,21.1
2023-01-17T13:26:12.386Z,21.1
2023-01-17T13:27:56.062Z,21.1
2023-01-17T13:29:39.878Z,21.1
2023-01-17T13:31:23.536Z,21.1
2023-01-17T13:33:07.204Z,21.1
2023-01-17T13:34:50.876Z,21.1
2023-01-17T13:36:34.593Z,21.2
2023-01-17T13:38:18.349Z,21.1
2023-01-17T13:40:01.986Z,21.1
2023-01-17T13:41:45.706Z,21.1
2023-01-17T13:43:29.455Z,21
2023-01-17T13:45:13.250Z,21
2023-01-17T13:46:56.781Z,21
2023-01-17T13:48:40.681Z,20.9
2023-01-17T13:50:24.238Z,20.9
2023-01-17T13:52:07.952Z,20.9
2023-01-17T13:53:51.671Z,20.9
2023-01-17T13:55:35.376Z,20.8
2023-01-17T13:57:19.053Z,20.8
2023-01-17T13:59:02.776Z,20.8
2023-01-17T14:00:46.443Z,20.8
2023-01-17T14:02:30.179Z,20.8
2023-01-17T14:04:13.918Z,20.8
2023-01-17T14:05:57.532Z,20.7
2023-01-17T14:07:41.285Z,20.7
2023-01-17T14:09:24.981Z,20.6
2023-01-17T14:11:08.696Z,20.6
2023-01-17T14:12:52.336Z,20.6
2023-01-17T14:14:36.020Z,20.6
2023-01-17T14:16:19.730Z,20.5
2023-01-17T14:18:03.446Z,20.5
2023-01-17T14:19:47.167Z,20.5
2023-01-17T14:21:30.947Z,20.5
2023-01-17T14:23:14.529Z,20.5
2023-01-17T14:24:58.221Z,20.4
2023-01-17T14:26:42.101Z,20.4
2023-01-17T14:28:25.703Z,20.4
2023-01-17T14:30:09.322Z,20.4
2023-01-17T14:31:53.083Z,20.3
2023-01-17T14:33:36.749Z,20.3
2023-01-17T14:35:20.416Z,20.3
2023-01-17T14:37:04.128Z,20.3
2023-01-17T14:38:47.902Z,20.3
2023-01-17T14:40:31.533Z,20.2
2023-01-17T14:42:15.311Z,20.2
2023-01-17T14:43:58.958Z,20.2
2023-01-17T14:45:42.652Z,20.2
2023-01-17T14:47:26.368Z,20.2
2023-01-17T14:49:10.109Z,20.1
2023-01-17T14:50:53.748Z,20.1
2023-01-17T14:52:37.461Z,20.1
2023-01-17T14:54:21.173Z,20.1
2023-01-17T14:56:04.881Z,20.1
2023-01-17T14:57:48.567Z,20
2023-01-17T14:59:32.341Z,20
2023-01-17T15:01:16.021Z,20
2023-01-17T15:02:59.673Z,20
2023-01-17T15:04:43.374Z,20
2023-01-17T15:06:27.093Z,20
2023-01-17T15:08:10.770Z,20
2023-01-17T15:09:54.465Z,19.9
2023-01-17T15:11:38.175Z,19.9
2023-01-17T15:13:21.886Z,19.9
2023-01-17T15:15:05.575Z,19.9
2023-01-17T15:16:49.280Z,19.9
2023-01-17T15:18:32.979Z,19.9
2023-01-17T15:20:16.673Z,19.9
2023-01-17T15:22:00.379Z,19.8
2023-01-17T15:23:44.087Z,19.8
2023-01-17T15:25:27.783Z,19.8
2023-01-17T15:27:11.506Z,19.8
2023-01-17T15:28:55.201Z,19.8
2023-01-17T15:30:38.891Z,19.8
2023-01-17T15:32:22.585Z,19.8
2023-01-17T15:34:06.279Z,19.7
2023-01-17T15:35:49.990Z,19.7
2023-01-17T15:37:33.703Z,19.7
2023-01-17T15:39:17.479Z,19.8
2023-01-17T15:41:01.104Z,19.8
2023-01-17T15:42:44.802Z,19.7
2023-01-17T15:44:28.503Z,19.7
2023-01-17T15:46:12.209Z,19.7
2023-01-17T15:47:55.918Z,19.7
2023-01-17T15:49:39.590Z,19.7
2023-01-17T15:51:23.302Z,19.7
2023-01-17T15:53:07.002Z,19.7
2023-01-17T15:54:50.729Z,19.7
2023-01-17T15:56:34.403Z,19.7
2023-01-17T15:58:18.096Z,19.7
2023-01-17T16:00:01.885Z,19.7
2023-01-17T16:01:45.732Z,19.7
2023-01-17T16:03:29.226Z,19.7
2023-01-17T16:05:12.936Z,19.6
2023-01-17T16:06:56.649Z,19.6
2023-01-17T16:08:40.477Z,19.6
2023-01-17T16:10:24.039Z,19.6
2023-01-17T16:12:07.744Z,19.6
2023-01-17T16:13:51.499Z,19.6
2023-01-17T16:15:35.150Z,19.6
2023-01-17T16:17:18.859Z,19.6
2023-01-17T16:19:02.572Z,19.6
2023-01-17T16:20:46.319Z,19.6
2023-01-17T16:22:29.939Z,19.6
2023-01-17T16:24:13.661Z,19.6
2023-01-17T16:25:57.360Z,19.6
2023-01-17T16:27:41.072Z,19.6
2023-01-17T16:29:24.757Z,19.6
2023-01-17T16:31:08.469Z,19.6
2023-01-17T16:32:52.157Z,19.6
2023-01-17T16:34:35.881Z,19.6
2023-01-17T16:36:19.573Z,19.6
2023-01-17T16:38:03.263Z,19.6
2023-01-17T16:39:46.989Z,19.6
2023-01-17T16:41:30.705Z,19.6
2023-01-17T16:43:14.368Z,19.6
2023-01-17T16:44:58.075Z,19.6
2023-01-17T16:46:41.774Z,19.6
2023-01-17T16:48:25.485Z,19.6
2023-01-17T16:50:09.177Z,19.6
2023-01-17T16:51:52.882Z,19.6
2023-01-17T16:53:36.608Z,19.6
2023-01-17T16:55:20.290Z,19.6
2023-01-17T16:57:03.978Z,19.6
2023-01-17T16:58:47.743Z,19.6
2023-01-17T17:00:31.386Z,19.6
2023-01-17T17:02:15.103Z,19.7
2023-01-17T17:03:58.800Z,19.6
2023-01-17T17:05:42.490Z,19.7
2023-01-17T17:07:26.194Z,19.7
2023-01-17T17:09:09.948Z,19.7
2023-01-17T17:10:53.594Z,19.7
2023-01-17T17:12:37.296Z,19.7
2023-01-17T17:14:21.020Z,19.7
2023-01-17T17:16:04.740Z,19.7
2023-01-17T17:17:48.406Z,19.7
2023-01-17T17:19:32.101Z,19.7
2023-01-17T17:21:15.806Z,19.7
2023-01-17T17:22:59.541Z,19.8
2023-01-17T17:24:43.205Z,19.8
2023-01-17T17:26:26.919Z,19.8
2023-01-17T17:28:10.629Z,19.8
2023-01-17T17:29:54.300Z,19.8
2023-01-17T17:31:38.004Z,19.8
2023-01-17T17:33:21.707Z,19.8
2023-01-17T17:35:05.415Z,19.8
2023-01-17T17:36:49.122Z,19.9
2023-01-17T17:38:32.806Z,19.9
2023-01-17T17:40:16.520Z,20
2023-01-17T17:42:00.221Z,20
2023-01-17T17:43:43.921Z,20
2023-01-17T17:45:27.635Z,20
2023-01-17T17:47:11.321Z,20
2023-01-17T17:48:55.103Z,20
2023-01-17T17:50:38.723Z,20
2023-01-17T17:52:22.432Z,20
2023-01-17T17:54:06.119Z,20
2023-01-17T17:55:49.831Z,20
2023-01-17T17:57:33.585Z,20
2023-01-17T17:59:17.224Z,20
2023-01-17T18:01:00.936Z,20
2023-01-17T18:02:44.628Z,20
2023-01-17T18:04:28.343Z,20
2023-01-17T18:06:12.033Z,20
2023-01-17T18:07:55.726Z,20
2023-01-17T18:09:39.446Z,20
2023-01-17T18:11:23.137Z,20
2023-01-17T18:13:06.835Z,20
2023-01-17T18:14:50.598Z,20
2023-01-17T18:16:34.328Z,20
2023-01-17T18:18:18.035Z,20
2023-01-17T18:20:01.730Z,20
2023-01-17T18:21:45.528Z,20
2023-01-17T18:23:29.123Z,20
2023-01-17T18:25:12.840Z,20
2023-01-17T18:26:56.501Z,20
2023-01-17T18:28:40.224Z,20
2023-01-17T18:30:23.915Z,20
2023-01-17T18:32:07.625Z,20
2023-01-17T18:33:51.315Z,20
2023-01-17T18:35:35.006Z,20
2023-01-17T18:37:18.696Z,20
2023-01-17T18:39:02.424Z,20
2023-01-17T18:40:46.183Z,20
2023-01-17T18:42:29.842Z,20
2023-01-17T18:44:13.532Z,20
2023-01-17T18:45:57.205Z,20
2023-01-17T18:47:40.923Z,20
2023-01-17T18:49:24.681Z,20
2023-01-17T18:51:08.336Z,20
2023-01-17T18:52:52.033Z,20
2023-01-17T18:54:35.746Z,20
2023-01-17T18:56:19.397Z,20
2023-01-17T18:58:03.119Z,20
2023-01-17T18:59:46.815Z,20
2023-01-17T19:01:30.526Z,20
2023-01-17T19:03:14.306Z,20
2023-01-17T19:04:57.937Z,20
2023-01-17T19:06:41.675Z,20
2023-01-17T19:08:25.349Z,20
2023-01-17T19:10:09.032Z,20
2023-01-17T19:11:52.744Z,20
2023-01-17T19:13:36.424Z,20
2023-01-17T19:15:20.114Z,20
2023-01-17T19:17:03.796Z,20
2023-01-17T19:18:47.510Z,20
2023-01-17T19:20:31.199Z,20
2023-01-17T19:22:15.004Z,20.1
2023-01-17T19:23:58.619Z,20.1
2023-01-17T19:25:42.426Z,20.1
2023-01-17T19:27:26.021Z,20.1
2023-01-17T19:29:09.727Z,20.1
2023-01-17T19:30:53.420Z,20.1
2023-01-17T19:32:37.172Z,20.1
2023-01-17T19:34:20.806Z,20.1
2023-01-17T19:36:04.540Z,20.1
2023-01-17T19:37:48.313Z,20.1
2023-01-17T19:39:31.980Z,20.1
2023-01-17T19:41:15.603Z,20.1
2023-01-17T19:42:59.320Z,20.1
2023-01-17T19:44:43.090Z,20.1
2023-01-17T19:46:26.750Z,20.1
2023-01-17T19:48:10.466Z,20.1
2023-01-17T19:49:54.131Z,20.1
2023-01-17T19:51:37.828Z,20.1
2023-01-17T19:53:21.528Z,20.1
2023-01-17T19:55:05.229Z,20.1
2023-01-17T19:56:48.944Z,20.1
2023-01-17T19:58:32.646Z,20.1
2023-01-17T20:00:16.343Z,20.1
2023-01-17T20:02:00.063Z,20.1
2023-01-17T20:03:43.757Z,20.1
2023-01-17T20:05:27.442Z,20.1
2023-01-17T20:07:11.152Z,20.1
2023-01-17T20:08:54.851Z,20
2023-01-17T20:10:38.543Z,20.1
2023-01-17T20:12:22.256Z,20.1
2023-01-17T20:14:06.097Z,20.1
2023-01-17T20:15:49.657Z,20.1
2023-01-17T20:17:33.370Z,20.1
2023-01-17T20:19:17.067Z,20
2023-01-17T20:21:00.823Z,20.1
2023-01-17T20:22:44.488Z,20
2023-01-17T20:24:28.302Z,20.1
2023-01-17T20:26:11.875Z,20.1
2023-01-17T20:27:55.616Z,20.1
2023-01-17T20:29:39.381Z,20.1
2023-01-17T20:31:23.008Z,20.1
2023-01-17T20:33:06.701Z,20
2023-01-17T20:34:50.432Z,20
2023-01-17T20:36:34.102Z,20
2023-01-17T20:38:17.817Z,20
2023-01-17T20:40:01.696Z,20
2023-01-17T20:41:45.284Z,20
2023-01-17T20:43:28.918Z,20
2023-01-17T20:45:12.638Z,20
2023-01-17T20:46:56.339Z,20
2023-01-17T20:48:40.067Z,20
2023-01-17T20:50:23.720Z,20
2023-01-17T20:52:07.437Z,20
2023-01-17T20:53:51.268Z,20
2023-01-17T20:55:34.888Z,20
2023-01-17T20:57:18.548Z,20
2023-01-17T20:59:02.288Z,20
2023-01-17T21:00:45.969Z,20
2023-01-17T21:02:29.658Z,20
2023-01-17T21:04:13.380Z,20
2023-01-17T21:05:57.063Z,20
2023-01-17T21:07:40.816Z,20
2023-01-17T21:09:24.509Z,20
2023-01-17T21:11:08.162Z,20
2023-01-17T21:12:51.869Z,20
2023-01-17T21:14:35.580Z,20
2023-01-17T21:16:19.294Z,20
2023-01-17T21:18:02.978Z,20
2023-01-17T21:19:46.674Z,20
2023-01-17T21:21:30.400Z,20
2023-01-17T21:23:14.083Z,20
2023-01-17T21:24:57.801Z,19.9
2023-01-17T21:26:41.496Z,19.9
2023-01-17T21:28:25.212Z,19.9
2023-01-17T21:30:08.912Z,19.9
2023-01-17T21:31:52.630Z,19.9
2023-01-17T21:33:36.284Z,19.9
2023-01-17T21:35:19.982Z,19.9
2023-01-17T21:37:03.722Z,19.9
2023-01-17T21:38:47.404Z,19.9
2023-01-17T21:40:31.086Z,19.9
2023-01-17T21:42:14.813Z,19.9
2023-01-17T21:43:58.509Z,19.9
2023-01-17T21:45:42.220Z,19.9
2023-01-17T21:47:25.912Z,19.9
2023-01-17T21:49:09.608Z,19.9
2023-01-17T21:50:53.429Z,19.9
2023-01-17T21:52:37.025Z,19.8
2023-01-17T21:54:20.714Z,19.8
2023-01-17T21:56:04.450Z,19.8
2023-01-17T21:57:48.131Z,19.8
2023-01-17T21:59:31.831Z,19.8
2023-01-17T22:01:15.517Z,19.8
2023-01-17T22:02:59.228Z,19.8
2023-01-17T22:04:42.950Z,19.8
2023-01-17T22:06:26.680Z,19.8
2023-01-17T22:08:10.345Z,19.8
2023-01-17T22:09:54.042Z,19.8
2023-01-17T22:11:37.756Z,19.8
2023-01-17T22:13:21.451Z,19.8
2023-01-17T22:15:05.136Z,19.8
2023-01-17T22:16:48.833Z,19.8
2023-01-17T22:18:32.574Z,19.7
2023-01-17T22:20:16.272Z,19.7
2023-01-17T22:21:59.944Z,19.8
2023-01-17T22:23:43.658Z,19.8
2023-01-17T22:25:27.360Z,19.8
2023-01-17T22:27:11.061Z,19.7
2023-01-17T22:28:54.757Z,19.7
2023-01-17T22:30:38.442Z,19.7
2023-01-17T22:32:22.158Z,19.7
2023-01-17T22:34:05.908Z,19.8
2023-01-17T22:35:49.572Z,19.8
2023-01-17T22:37:33.287Z,19.7
2023-01-17T22:39:16.967Z,19.7
2023-01-17T22:41:00.688Z,19.7
2023-01-17T22:42:44.378Z,19.7
2023-01-17T22:44:28.081Z,19.7
2023-01-17T22:46:11.769Z,19.7
2023-01-17T22:47:55.474Z,19.7
2023-01-17T22:49:39.171Z,19.7
2023-01-17T22:51:22.895Z,19.7
2023-01-17T22:53:06.592Z,19.7
2023-01-17T22:54:50.290Z,19.7
2023-01-17T22:56:34.010Z,19.7
2023-01-17T22:58:17.689Z,19.7
2023-01-17T23:00:01.411Z,19.6
2023-01-17T23:01:45.087Z,19.7
2023-01-17T23:03:28.811Z,19.6
2023-01-17T23:05:12.498Z,19.6
2023-01-17T23:06:56.217Z,19.6
2023-01-17T23:08:39.928Z,19.6
2023-01-17T23:10:23.623Z,19.6
2023-01-17T23:12:07.324Z,19.6
2023-01-17T23:13:51.024Z,19.6
2023-01-17T23:15:34.718Z,19.6
2023-01-17T23:17:18.500Z,19.6
2023-01-17T23:19:02.125Z,19.6
2023-01-17T23:20:45.850Z,19.6